Weather at Gaylord Regional Airport

Public forecast

Using degrees Fahrenheit for public forecast. Weather courtesy of forecast.io.

Current aviation weather report (METAR) for Gaylord Regional Airport

Retrieved 2021/11/29 21:53 UTC (59 minutes ago):

KGLR 292153Z AUTO 18006KT 10SM OVC100 M01/M07 A2988 RMK AO2 SLP136 T10111067

Closest aviation forecast (TAF) to Gaylord Regional Airport

Closest forecast is Pellston Regional Airport of Emmet County Airport, 33.7 nm (62.4 km) N. Retrieved 2021/11/29 18:33 UTC (4 hours ago):

TAF KPLN 291729Z 2918/3018 VRB04KT P6SM BKN029 FM300000 00000KT P6SM OVC045 FM300100 VRB04KT P6SM VCSH OVC040 FM300300 VRB04KT 3SM -SN BR OVC024 FM300400 VRB04KT P6SM -SN OVC009 FM301400 27007KT P6SM BKN011